Time;durP1;ratioP1;P1;durP2;ratioP2;P2;SDS_P1;SDS_P2;PMS_P1;PMS_P2;Temp;Humidity;BMP_temperature;BMP_pressure;BME280_temperature;BME280_humidity;BME280_pressure;Samples;Min_cycle;Max_cycle;Signal;HPM_P1;HPM_P2
2022/01/22 00:00:15;;;;;;;2.57;2.00;;;5.90;99.90;;;;;;4917969;29;20606;-90
2022/01/22 00:02:42;;;;;;;3.00;2.00;;;6.00;99.90;;;;;;4917810;29;20194;-90
2022/01/22 00:05:10;;;;;;;2.47;2.27;;;6.00;99.90;;;;;;4917711;29;20182;-90
2022/01/22 00:07:36;;;;;;;3.60;2.70;;;5.90;99.90;;;;;;4917084;29;20253;-90
2022/01/22 00:10:07;;;;;;;2.60;2.10;;;6.00;99.90;;;;;;4917764;29;20206;-90
2022/01/22 00:15:08;;;;;;;2.87;2.40;;;6.00;99.90;;;;;;4919008;29;20218;-90
2022/01/22 00:17:34;;;;;;;4.90;2.50;;;6.00;99.90;;;;;;4916227;29;20614;-89
2022/01/22 00:19:59;;;;;;;3.20;2.20;;;6.10;99.90;;;;;;4917830;29;20193;-90
2022/01/22 00:22:29;;;;;;;2.43;2.00;;;6.00;99.90;;;;;;4917819;29;20245;-90
2022/01/22 00:25:00;;;;;;;2.90;2.23;;;6.00;99.90;;;;;;4917558;29;20644;-90
2022/01/22 00:27:26;;;;;;;2.17;1.97;;;6.00;99.90;;;;;;4917460;29;20673;-90
2022/01/22 00:29:53;;;;;;;2.40;2.10;;;6.00;99.90;;;;;;4917468;29;20285;-90
2022/01/22 00:32:18;;;;;;;2.47;2.27;;;6.00;99.90;;;;;;4917612;29;20197;-90
2022/01/22 00:34:44;;;;;;;2.97;2.53;;;6.00;99.90;;;;;;4917509;29;20190;-90
2022/01/22 00:37:10;;;;;;;3.33;2.27;;;6.00;99.90;;;;;;4917042;29;20186;-90
2022/01/22 00:39:36;;;;;;;3.33;2.00;;;6.10;99.90;;;;;;4919919;29;20238;-90
2022/01/22 00:42:09;;;;;;;3.77;2.77;;;6.10;99.90;;;;;;4920923;29;20273;-89
2022/01/22 00:44:34;;;;;;;4.77;2.80;;;6.10;99.90;;;;;;4921280;29;20250;-90
2022/01/22 00:47:02;;;;;;;3.67;2.70;;;6.00;99.90;;;;;;4920776;29;20219;-90
2022/01/22 00:49:28;;;;;;;7.73;2.90;;;6.00;99.90;;;;;;4920882;29;20190;-90
2022/01/22 00:51:54;;;;;;;4.73;3.10;;;6.00;99.90;;;;;;4921972;29;20641;-91
2022/01/22 00:54:20;;;;;;;4.10;2.60;;;5.90;99.90;;;;;;4920913;29;20218;-89
2022/01/22 00:56:46;;;;;;;5.33;3.00;;;6.00;99.90;;;;;;4920624;29;20191;-90
2022/01/22 00:59:11;;;;;;;4.43;2.53;;;6.10;99.90;;;;;;4920710;29;20634;-90
2022/01/22 01:01:37;;;;;;;4.20;2.70;;;6.00;99.90;;;;;;4921215;29;20186;-90
2022/01/22 01:04:03;;;;;;;3.37;2.90;;;6.00;99.90;;;;;;4920796;29;20190;-90
2022/01/22 01:06:31;;;;;;;4.03;2.87;;;6.00;99.90;;;;;;4920074;29;20245;-90
2022/01/22 01:09:00;;;;;;;3.87;2.70;;;6.10;99.90;;;;;;4920660;29;20313;-90
2022/01/22 01:11:27;;;;;;;4.33;3.03;;;6.10;99.90;;;;;;4920737;29;20190;-90
2022/01/22 01:13:58;;;;;;;5.30;3.23;;;6.10;99.90;;;;;;4920724;29;20618;-88
2022/01/22 01:35:09;;;;;;;4.90;2.60;;;6.20;99.90;;;;;;4921489;29;20246;-90
2022/01/22 01:37:35;;;;;;;2.83;2.40;;;6.10;99.90;;;;;;4920072;29;20230;-91
2022/01/22 01:40:04;;;;;;;3.87;3.10;;;6.20;99.90;;;;;;4920359;29;20214;-91
2022/01/22 01:42:45;;;;;;;3.50;2.83;;;6.10;99.90;;;;;;4920594;29;20222;-90
2022/01/22 01:45:11;;;;;;;5.83;3.10;;;6.20;99.90;;;;;;4920234;29;20175;-89
2022/01/22 01:47:39;;;;;;;4.60;2.70;;;6.20;99.90;;;;;;4920143;29;20247;-90
2022/01/22 01:50:05;;;;;;;3.67;2.87;;;6.20;99.90;;;;;;4919514;29;20252;-91
2022/01/22 01:53:01;;;;;;;3.57;2.87;;;6.20;99.90;;;;;;4919928;29;20182;-90
2022/01/22 01:55:35;;;;;;;2.87;2.50;;;6.20;99.90;;;;;;4920179;29;20205;-90
2022/01/22 01:58:01;;;;;;;3.53;2.57;;;6.20;99.90;;;;;;4920112;29;20182;-91
2022/01/22 02:00:27;;;;;;;3.00;2.50;;;6.20;99.90;;;;;;4919905;29;20531;-90
2022/01/22 02:02:54;;;;;;;3.47;2.90;;;6.10;99.90;;;;;;4919893;29;20194;-91
2022/01/22 02:05:22;;;;;;;4.07;2.70;;;6.20;99.90;;;;;;4919727;29;20225;-89
2022/01/22 02:07:51;;;;;;;3.90;2.77;;;6.20;99.90;;;;;;4919136;29;20697;-90
2022/01/22 02:10:22;;;;;;;3.23;2.50;;;6.20;99.90;;;;;;4919752;29;20209;-90
2022/01/22 02:23:42;;;;;;;4.10;2.57;;;6.20;99.90;;;;;;4919881;29;20253;-90
2022/01/22 02:26:10;;;;;;;3.30;2.60;;;6.20;99.90;;;;;;4919320;29;20212;-90
2022/01/22 02:28:36;;;;;;;4.40;3.13;;;6.20;99.90;;;;;;4918996;29;20222;-90
2022/01/22 02:36:25;;;;;;;4.03;2.83;;;6.20;99.90;;;;;;4920333;29;20193;-88
2022/01/22 02:41:51;;;;;;;4.20;2.70;;;6.20;99.90;;;;;;4888565;29;20202;-90
2022/01/22 02:44:33;;;;;;;3.80;2.70;;;6.10;99.90;;;;;;4918965;29;20645;-90
2022/01/22 02:47:01;;;;;;;2.87;2.20;;;6.20;99.90;;;;;;4918793;29;20297;-90
2022/01/22 02:49:27;;;;;;;2.67;2.17;;;6.10;99.90;;;;;;4919089;29;20186;-89
2022/01/22 02:51:52;;;;;;;2.40;2.20;;;6.20;99.90;;;;;;4918903;29;20242;-90
2022/01/22 02:54:18;;;;;;;2.77;2.23;;;6.20;99.90;;;;;;4918794;29;20652;-89
2022/01/22 02:56:44;;;;;;;2.43;2.10;;;6.10;99.90;;;;;;4918572;29;20189;-89
2022/01/22 02:59:09;;;;;;;2.57;2.03;;;6.20;99.90;;;;;;4918688;29;20182;-89
2022/01/22 03:01:35;;;;;;;2.60;2.10;;;6.10;99.90;;;;;;4918697;29;20170;-89
2022/01/22 03:04:01;;;;;;;2.10;1.70;;;6.10;99.90;;;;;;4918675;29;20266;-90
2022/01/22 03:06:26;;;;;;;2.77;2.00;;;6.10;99.90;;;;;;4918357;29;20369;-89
2022/01/22 03:08:52;;;;;;;4.13;2.20;;;6.20;99.90;;;;;;4911714;29;20339;-89
2022/01/22 03:11:25;;;;;;;2.27;1.90;;;6.20;99.90;;;;;;4899704;29;20186;-89
2022/01/22 03:20:07;;;;;;;3.00;2.37;;;6.10;99.90;;;;;;4921816;29;20194;-89
2022/01/22 03:22:16;;;;;;;3.73;1.93;;;6.10;99.90;;;;;;4911360;29;20190;-88
2022/01/22 03:27:28;;;;;;;3.80;2.60;;;6.20;99.90;;;;;;4919476;29;20283;-89
2022/01/22 03:29:55;;;;;;;3.23;2.50;;;6.20;99.90;;;;;;4918496;29;20193;-89
2022/01/22 03:32:25;;;;;;;2.47;2.13;;;6.20;99.90;;;;;;4918403;29;20187;-87
2022/01/22 03:34:56;;;;;;;3.27;2.50;;;6.20;99.90;;;;;;4918497;29;20248;-89
2022/01/22 03:37:27;;;;;;;2.97;2.47;;;6.20;99.90;;;;;;4917699;29;20540;-89
2022/01/22 03:39:55;;;;;;;3.60;2.77;;;6.20;99.90;;;;;;4918215;29;20198;-89
2022/01/22 03:42:21;;;;;;;3.17;2.40;;;6.20;99.90;;;;;;4918332;29;20277;-89
2022/01/22 03:44:47;;;;;;;3.70;2.47;;;6.20;99.90;;;;;;4918046;29;20226;-90
2022/01/22 03:47:13;;;;;;;4.10;2.30;;;6.20;99.90;;;;;;4917974;29;20243;-89
2022/01/22 03:49:39;;;;;;;4.47;2.40;;;6.20;99.90;;;;;;4917950;29;20178;-89
2022/01/22 03:52:05;;;;;;;3.70;2.50;;;6.20;99.90;;;;;;4917905;29;20295;-89
2022/01/22 03:54:31;;;;;;;3.00;2.20;;;6.20;99.90;;;;;;4917995;29;20198;-89
2022/01/22 03:56:56;;;;;;;2.83;2.43;;;6.20;99.90;;;;;;4918057;29;20195;-89
2022/01/22 03:59:25;;;;;;;2.77;2.20;;;6.20;99.90;;;;;;4917702;29;20709;-89
2022/01/22 04:04:31;;;;;;;3.20;2.57;;;6.20;99.90;;;;;;4918951;29;20194;-90
2022/01/22 04:09:28;;;;;;;3.30;2.30;;;6.20;99.90;;;;;;4918922;29;20218;-89
2022/01/22 04:11:56;;;;;;;4.03;2.40;;;6.20;99.90;;;;;;4919127;29;20178;-89
2022/01/22 04:14:26;;;;;;;2.70;2.17;;;6.20;99.90;;;;;;4921350;29;20190;-90
2022/01/22 04:25:08;;;;;;;2.37;1.97;;;6.20;99.90;;;;;;4908768;29;20219;-90
2022/01/22 04:27:34;;;;;;;2.33;1.77;;;6.20;99.90;;;;;;4923833;29;20221;-90
2022/01/22 04:30:00;;;;;;;2.30;1.77;;;6.30;99.90;;;;;;4924120;29;20193;-89
2022/01/22 04:32:28;;;;;;;1.90;1.37;;;6.30;99.90;;;;;;4923520;29;20291;-90
2022/01/22 04:34:54;;;;;;;4.03;1.67;;;6.30;99.90;;;;;;4923689;29;20186;-90
2022/01/22 04:37:21;;;;;;;1.87;1.50;;;6.20;99.90;;;;;;4923531;29;20194;-90
2022/01/22 04:39:48;;;;;;;1.93;1.30;;;6.20;99.90;;;;;;4923968;29;20194;-89
2022/01/22 04:42:15;;;;;;;2.60;1.83;;;6.20;99.90;;;;;;4923841;29;20201;-90
2022/01/22 04:45:05;;;;;;;2.17;1.57;;;6.30;99.90;;;;;;4923845;29;20688;-90
2022/01/22 04:47:42;;;;;;;2.47;1.40;;;6.20;99.90;;;;;;4924630;29;20210;-90
2022/01/22 04:55:37;;;;;;;1.97;1.47;;;6.20;99.90;;;;;;4924723;29;20210;-90
2022/01/22 04:58:05;;;;;;;2.97;1.63;;;6.20;99.90;;;;;;4923594;29;20186;-90
2022/01/22 05:00:32;;;;;;;2.03;1.47;;;6.20;99.90;;;;;;4923764;29;20241;-90
2022/01/22 05:02:59;;;;;;;2.80;1.70;;;6.20;99.90;;;;;;4923561;29;20533;-90
2022/01/22 05:05:26;;;;;;;2.23;1.60;;;6.20;99.90;;;;;;4923575;29;20178;-90
2022/01/22 05:07:52;;;;;;;2.60;1.70;;;6.20;99.90;;;;;;4922952;29;20620;-90
2022/01/22 05:10:19;;;;;;;3.07;1.80;;;6.10;99.90;;;;;;4923891;29;20503;-88
2022/01/22 05:12:44;;;;;;;1.73;1.40;;;6.10;99.90;;;;;;4923617;29;20525;-90
2022/01/22 05:15:11;;;;;;;2.90;1.67;;;6.10;99.90;;;;;;4923405;29;20190;-90
2022/01/22 05:17:40;;;;;;;3.63;1.60;;;6.10;99.90;;;;;;4923491;29;20618;-90
2022/01/22 05:20:16;;;;;;;3.03;1.73;;;6.10;99.90;;;;;;4923427;29;20197;-90
2022/01/22 05:25:23;;;;;;;4.73;1.50;;;6.20;99.90;;;;;;4922570;29;20185;-90
2022/01/22 05:38:32;;;;;;;5.37;1.97;;;6.10;99.90;;;;;;4921209;29;20657;-90
2022/01/22 05:40:58;;;;;;;2.77;1.77;;;6.10;99.90;;;;;;4920331;29;20265;-90
2022/01/22 05:43:24;;;;;;;3.93;1.97;;;6.00;99.90;;;;;;4920073;29;20289;-90
2022/01/22 05:45:50;;;;;;;4.60;2.27;;;6.00;99.90;;;;;;4920251;29;20209;-90
2022/01/22 05:48:16;;;;;;;4.83;2.20;;;6.00;99.90;;;;;;4921063;29;20237;-90
2022/01/22 05:50:59;;;;;;;3.97;1.93;;;6.00;99.90;;;;;;4920009;29;20213;-90
2022/01/22 06:01:15;;;;;;;4.37;2.13;;;5.90;99.90;;;;;;4921445;29;20237;-90
2022/01/22 06:03:41;;;;;;;6.57;2.73;;;5.80;99.90;;;;;;4919922;29;20174;-90
2022/01/22 06:06:07;;;;;;;4.97;2.40;;;5.80;99.90;;;;;;4919378;29;20241;-90
2022/01/22 06:08:38;;;;;;;5.63;2.67;;;5.80;99.90;;;;;;4919362;29;20214;-90
2022/01/22 06:11:09;;;;;;;5.00;2.40;;;5.80;99.90;;;;;;4919895;29;20629;-90
2022/01/22 06:13:44;;;;;;;6.10;2.30;;;5.90;99.90;;;;;;4919427;29;20190;-90
2022/01/22 06:16:12;;;;;;;3.90;2.57;;;5.90;99.90;;;;;;4919619;29;20174;-90
2022/01/22 06:18:38;;;;;;;5.43;2.40;;;6.00;99.90;;;;;;4919834;29;20193;-89
2022/01/22 06:21:04;;;;;;;6.67;2.33;;;5.90;99.90;;;;;;4919612;29;20178;-90
2022/01/22 06:23:30;;;;;;;6.70;2.70;;;6.00;99.90;;;;;;4919220;29;20199;-90
2022/01/22 06:26:00;;;;;;;8.43;2.70;;;5.90;99.90;;;;;;4919425;29;20179;-90
2022/01/22 06:28:27;;;;;;;4.43;2.93;;;6.00;99.90;;;;;;4919344;29;20226;-91
2022/01/22 06:30:53;;;;;;;5.70;2.70;;;5.90;99.90;;;;;;4919505;29;20225;-90
2022/01/22 06:33:18;;;;;;;7.27;2.90;;;5.90;99.90;;;;;;4919445;29;20210;-90
2022/01/22 06:35:44;;;;;;;8.43;3.13;;;5.80;99.90;;;;;;4920409;29;20186;-89
2022/01/22 06:38:10;;;;;;;9.03;3.20;;;5.80;99.90;;;;;;4918473;29;20622;-90
2022/01/22 06:43:02;;;;;;;7.33;2.90;;;5.80;99.90;;;;;;4920356;29;20191;-89
2022/01/22 06:45:28;;;;;;;7.90;3.07;;;5.80;99.90;;;;;;4919225;29;20182;-90
2022/01/22 06:47:54;;;;;;;5.70;3.27;;;5.80;99.90;;;;;;4918873;29;20215;-90
2022/01/22 06:50:21;;;;;;;9.57;2.80;;;5.80;99.90;;;;;;4918958;29;20243;-90
2022/01/22 06:52:47;;;;;;;7.10;3.33;;;5.90;99.90;;;;;;4918729;29;20183;-90
2022/01/22 06:55:17;;;;;;;6.70;2.97;;;5.90;99.90;;;;;;4919037;29;20178;-90
2022/01/22 06:57:43;;;;;;;7.20;3.30;;;5.80;99.90;;;;;;4920224;29;20648;-89
2022/01/22 07:00:09;;;;;;;5.70;3.13;;;5.80;99.90;;;;;;4920106;29;20175;-89
2022/01/22 07:02:35;;;;;;;9.03;4.10;;;5.80;99.90;;;;;;4918992;29;20187;-89
2022/01/22 07:05:00;;;;;;;7.50;3.30;;;5.80;99.90;;;;;;4918931;29;20523;-90
2022/01/22 07:07:26;;;;;;;4.47;2.80;;;5.80;99.90;;;;;;4917992;29;20238;-89
2022/01/22 07:09:52;;;;;;;7.27;3.60;;;5.80;99.90;;;;;;4918419;29;20191;-89
2022/01/22 07:12:17;;;;;;;8.63;3.00;;;5.80;99.90;;;;;;4919630;29;20190;-90
2022/01/22 07:14:45;;;;;;;5.83;3.07;;;5.80;99.90;;;;;;4918854;29;20193;-90
2022/01/22 07:17:12;;;;;;;4.97;3.13;;;5.80;99.90;;;;;;4918466;29;20230;-90
2022/01/22 07:19:42;;;;;;;3.83;2.90;;;5.80;99.90;;;;;;4918620;29;20186;-89
2022/01/22 07:22:34;;;;;;;7.47;3.17;;;5.80;99.90;;;;;;4918527;29;20207;-88
2022/01/22 07:24:59;;;;;;;5.30;3.00;;;5.80;99.90;;;;;;4918459;29;20242;-90
2022/01/22 07:27:25;;;;;;;4.07;2.50;;;5.80;99.90;;;;;;4919319;29;20218;-89
2022/01/22 07:29:51;;;;;;;5.97;3.03;;;5.80;99.90;;;;;;4918342;29;20237;-90
2022/01/22 07:32:27;;;;;;;5.87;3.20;;;5.80;99.90;;;;;;4918111;29;20193;-89
2022/01/22 07:34:52;;;;;;;4.73;2.80;;;5.80;99.90;;;;;;4918022;29;20250;-89
2022/01/22 07:37:18;;;;;;;4.97;3.20;;;5.90;99.90;;;;;;4918251;29;20187;-89
2022/01/22 07:39:44;;;;;;;5.80;2.80;;;5.90;99.90;;;;;;4917935;29;20285;-88
2022/01/22 07:42:09;;;;;;;7.60;3.17;;;5.90;99.90;;;;;;4918213;29;20269;-90
2022/01/22 07:44:35;;;;;;;6.17;3.40;;;5.80;99.90;;;;;;4917980;29;20276;-89
2022/01/22 07:47:01;;;;;;;6.90;3.03;;;5.80;99.90;;;;;;4917739;29;20214;-89
2022/01/22 07:49:26;;;;;;;6.20;3.10;;;5.80;99.90;;;;;;4917225;29;20191;-90
2022/01/22 07:51:52;;;;;;;5.73;2.93;;;5.80;99.90;;;;;;4918027;29;20186;-89
2022/01/22 07:54:21;;;;;;;4.73;2.80;;;5.90;99.90;;;;;;4917949;29;20222;-89
2022/01/22 07:56:46;;;;;;;8.53;3.60;;;5.90;99.90;;;;;;4917826;29;20186;-89
2022/01/22 07:59:12;;;;;;;6.17;2.80;;;5.90;99.90;;;;;;4917843;29;20249;-90
2022/01/22 08:01:38;;;;;;;9.33;3.37;;;5.90;99.90;;;;;;4918127;29;20191;-91
2022/01/22 08:04:03;;;;;;;9.77;4.53;;;5.90;99.90;;;;;;4918703;29;20506;-90
2022/01/22 08:06:29;;;;;;;8.20;3.63;;;5.90;99.90;;;;;;4917542;29;20797;-89
2022/01/22 08:08:55;;;;;;;8.40;3.33;;;5.90;99.90;;;;;;4917490;29;20236;-90
2022/01/22 08:11:21;;;;;;;8.73;3.27;;;6.00;99.90;;;;;;4917695;29;20197;-90
2022/01/22 08:13:46;;;;;;;6.43;4.17;;;5.90;99.90;;;;;;4917530;29;20202;-90
2022/01/22 08:16:12;;;;;;;7.87;3.73;;;5.90;99.90;;;;;;4917494;29;20238;-89
2022/01/22 08:18:38;;;;;;;6.67;3.60;;;6.00;99.90;;;;;;4917601;29;20194;-89
2022/01/22 08:21:03;;;;;;;6.97;3.37;;;6.00;99.90;;;;;;4917919;29;20222;-90
2022/01/22 08:23:30;;;;;;;9.27;3.20;;;6.00;99.90;;;;;;4917634;29;20277;-89
2022/01/22 08:25:56;;;;;;;7.80;3.30;;;6.10;99.90;;;;;;4917870;29;20230;-89
2022/01/22 08:31:19;;;;;;;7.47;3.57;;;6.10;99.90;;;;;;4918944;29;20170;-89
2022/01/22 08:36:40;;;;;;;8.47;3.80;;;6.10;99.90;;;;;;4867065;29;20192;-90
2022/01/22 08:39:06;;;;;;;6.07;3.03;;;6.00;99.90;;;;;;4917668;29;20194;-89
2022/01/22 08:41:33;;;;;;;5.90;3.17;;;6.00;99.90;;;;;;4917467;29;20194;-89
2022/01/22 08:44:00;;;;;;;5.90;3.13;;;6.10;99.90;;;;;;4917389;29;20190;-90
2022/01/22 08:46:28;;;;;;;6.10;3.30;;;6.10;99.90;;;;;;4917470;29;20221;-90
2022/01/22 08:48:54;;;;;;;7.47;3.23;;;6.10;99.90;;;;;;4918313;29;20675;-90
2022/01/22 08:51:20;;;;;;;5.40;3.23;;;6.10;99.90;;;;;;4917400;29;20269;-90
2022/01/22 08:53:50;;;;;;;6.63;3.60;;;6.10;99.90;;;;;;4916975;29;20269;-90
2022/01/22 08:56:16;;;;;;;6.20;3.27;;;6.10;99.90;;;;;;4917400;29;20175;-90
2022/01/22 08:58:43;;;;;;;6.67;3.50;;;6.20;99.90;;;;;;4917436;29;20311;-90
2022/01/22 09:01:09;;;;;;;6.37;3.90;;;6.10;99.90;;;;;;4919916;29;20653;-90
2022/01/22 09:03:35;;;;;;;6.23;3.43;;;6.10;99.90;;;;;;4914977;29;20282;-91
2022/01/22 09:06:05;;;;;;;5.40;3.47;;;6.10;99.90;;;;;;4909878;29;20390;-91
2022/01/22 09:08:31;;;;;;;6.27;3.60;;;6.20;99.90;;;;;;4911574;29;20619;-91
2022/01/22 09:10:57;;;;;;;4.80;3.30;;;6.10;99.90;;;;;;4920857;29;20214;-90
2022/01/22 09:13:24;;;;;;;5.87;2.80;;;6.10;99.90;;;;;;4912565;29;20225;-89
2022/01/22 09:15:53;;;;;;;6.70;2.90;;;6.20;99.90;;;;;;4920592;29;20206;-90
2022/01/22 09:18:19;;;;;;;5.30;3.20;;;6.20;99.90;;;;;;4920621;29;20182;-90
2022/01/22 09:21:02;;;;;;;5.10;2.80;;;6.20;99.90;;;;;;4920761;29;20520;-90
2022/01/22 09:23:29;;;;;;;5.97;3.33;;;6.20;99.90;;;;;;4920627;29;20182;-91
2022/01/22 09:25:56;;;;;;;6.67;3.00;;;6.20;99.90;;;;;;4920735;29;20182;-90
2022/01/22 09:28:23;;;;;;;4.23;2.77;;;6.30;99.90;;;;;;4920617;29;20309;-90
2022/01/22 09:30:48;;;;;;;3.97;2.47;;;6.30;99.90;;;;;;4920699;29;20182;-90
2022/01/22 09:33:15;;;;;;;4.27;2.83;;;6.30;99.90;;;;;;4920495;29;20197;-90
2022/01/22 09:35:40;;;;;;;8.10;2.93;;;6.30;99.90;;;;;;4920491;29;20598;-90
2022/01/22 09:38:06;;;;;;;6.20;3.10;;;6.30;99.90;;;;;;4920204;29;20238;-90
2022/01/22 09:40:32;;;;;;;4.93;3.40;;;6.30;99.90;;;;;;4920474;29;20186;-90
2022/01/22 09:42:59;;;;;;;5.07;3.57;;;6.30;99.90;;;;;;4920338;29;20249;-90
2022/01/22 09:45:29;;;;;;;5.30;3.57;;;6.30;99.90;;;;;;4920333;29;20187;-90
2022/01/22 09:47:58;;;;;;;5.80;3.70;;;6.30;99.90;;;;;;4920129;29;20274;-90
2022/01/22 09:50:25;;;;;;;5.53;3.57;;;6.40;99.90;;;;;;4921079;29;20178;-90
2022/01/22 09:52:51;;;;;;;4.40;3.23;;;6.40;99.90;;;;;;4919710;29;20186;-90
2022/01/22 09:55:17;;;;;;;4.33;3.03;;;6.40;99.90;;;;;;4920116;29;20194;-90
2022/01/22 09:57:44;;;;;;;3.63;2.70;;;6.40;99.90;;;;;;4921071;29;20194;-91
2022/01/22 10:00:13;;;;;;;6.60;2.60;;;6.40;99.90;;;;;;4920035;29;20237;-90
2022/01/22 10:02:40;;;;;;;5.00;2.93;;;6.40;99.90;;;;;;4919723;29;20182;-90
2022/01/22 10:05:25;;;;;;;3.20;2.50;;;6.40;99.90;;;;;;4935684;29;20257;-90
2022/01/22 10:07:53;;;;;;;4.03;2.60;;;6.40;99.90;;;;;;4920503;29;20288;-89
2022/01/22 10:10:19;;;;;;;2.80;2.33;;;6.40;99.90;;;;;;4920911;29;20171;-89
2022/01/22 10:12:51;;;;;;;4.03;2.63;;;6.40;99.90;;;;;;4919282;29;20183;-90
2022/01/22 10:15:21;;;;;;;4.87;2.60;;;6.30;99.90;;;;;;4919395;29;20186;-89
2022/01/22 10:17:53;;;;;;;5.57;2.80;;;6.40;99.90;;;;;;4919680;29;20538;-89
2022/01/22 10:20:24;;;;;;;4.87;2.60;;;6.30;99.90;;;;;;4919505;29;20179;-89
2022/01/22 10:23:02;;;;;;;3.47;2.73;;;6.40;99.90;;;;;;4919473;29;20187;-89
2022/01/22 10:25:46;;;;;;;4.63;2.43;;;6.40;99.90;;;;;;4919369;29;20242;-89
2022/01/22 10:28:20;;;;;;;4.87;2.30;;;6.40;99.90;;;;;;4919449;29;20222;-89
2022/01/22 10:30:51;;;;;;;6.03;2.63;;;6.40;99.90;;;;;;4919587;29;20183;-90
2022/01/22 10:33:27;;;;;;;5.10;2.80;;;6.40;99.90;;;;;;4919616;29;20193;-89
2022/01/22 10:36:07;;;;;;;4.43;2.90;;;6.40;99.90;;;;;;4919185;29;20190;-90
2022/01/22 10:38:46;;;;;;;4.73;2.60;;;6.40;99.90;;;;;;4918994;29;20209;-90
2022/01/22 10:41:14;;;;;;;3.97;2.53;;;6.40;99.90;;;;;;4919303;29;20190;-89
2022/01/22 10:43:44;;;;;;;3.57;2.23;;;6.40;99.90;;;;;;4918954;29;20697;-90
2022/01/22 10:46:19;;;;;;;3.00;2.07;;;6.50;99.90;;;;;;4920208;29;20189;-89
2022/01/22 10:49:00;;;;;;;4.00;2.57;;;6.40;99.90;;;;;;4918891;29;20375;-90
2022/01/22 10:51:28;;;;;;;2.93;2.07;;;6.40;99.90;;;;;;4918958;29;20186;-90
2022/01/22 10:54:02;;;;;;;2.80;2.07;;;6.40;99.90;;;;;;4918582;29;20183;-90
2022/01/22 10:56:30;;;;;;;3.73;2.40;;;6.40;99.90;;;;;;4918959;29;20528;-90
2022/01/22 10:58:58;;;;;;;3.50;2.57;;;6.40;99.90;;;;;;4920147;29;20205;-90
2022/01/22 11:01:46;;;;;;;2.70;2.23;;;6.40;99.90;;;;;;4918872;29;20198;-89
2022/01/22 11:04:14;;;;;;;2.93;2.13;;;6.50;99.90;;;;;;4901149;29;20171;-90
2022/01/22 11:07:15;;;;;;;3.50;2.40;;;6.50;99.90;;;;;;4899782;29;20227;-91
2022/01/22 11:09:41;;;;;;;6.23;2.13;;;6.50;99.90;;;;;;4895333;29;20203;-90
2022/01/22 11:12:07;;;;;;;3.60;2.30;;;6.50;99.90;;;;;;4899997;29;20188;-90
2022/01/22 11:14:34;;;;;;;3.37;2.33;;;6.50;99.90;;;;;;4911445;29;20222;-89
2022/01/22 11:17:01;;;;;;;9.73;3.10;;;6.50;99.90;;;;;;4918504;29;20190;-89
2022/01/22 11:19:32;;;;;;;4.03;2.27;;;6.50;99.90;;;;;;4918559;29;20500;-89
2022/01/22 11:22:01;;;;;;;6.30;2.63;;;6.50;99.90;;;;;;4918540;29;20167;-90
2022/01/22 11:24:28;;;;;;;6.07;2.70;;;6.50;99.90;;;;;;4917317;29;20194;-90
2022/01/22 11:27:01;;;;;;;4.70;2.47;;;6.50;99.90;;;;;;4918158;29;20524;-90
2022/01/22 11:29:31;;;;;;;4.97;2.53;;;6.50;99.90;;;;;;4919506;29;20194;-90
2022/01/22 11:32:00;;;;;;;5.03;2.97;;;6.50;99.90;;;;;;4918384;29;20182;-90
2022/01/22 11:34:31;;;;;;;8.07;3.10;;;6.50;99.90;;;;;;4918185;29;20186;-91
2022/01/22 11:37:10;;;;;;;7.60;2.90;;;6.50;99.90;;;;;;4918136;29;20178;-90
2022/01/22 11:39:36;;;;;;;7.70;3.07;;;6.50;99.90;;;;;;4918152;29;20214;-90
2022/01/22 11:42:04;;;;;;;7.53;3.30;;;6.60;99.90;;;;;;4919302;29;20183;-90
2022/01/22 11:44:45;;;;;;;8.57;3.47;;;6.60;99.90;;;;;;4917917;29;20186;-91
2022/01/22 11:47:17;;;;;;;8.53;3.33;;;6.60;99.90;;;;;;4917895;29;20261;-89
2022/01/22 11:50:07;;;;;;;6.07;2.83;;;6.60;99.90;;;;;;4918266;29;20191;-90
2022/01/22 11:52:41;;;;;;;6.57;3.20;;;6.60;99.90;;;;;;4918538;29;20183;-90
2022/01/22 11:55:13;;;;;;;5.90;2.90;;;6.60;99.90;;;;;;4917590;29;20186;-90
2022/01/22 11:57:40;;;;;;;7.70;3.53;;;6.60;99.90;;;;;;4918280;29;20583;-90
2022/01/22 12:00:25;;;;;;;9.57;3.63;;;6.70;99.90;;;;;;4917866;29;20194;-89
2022/01/22 12:03:03;;;;;;;8.80;3.67;;;6.70;99.90;;;;;;4917765;29;20225;-89
2022/01/22 12:05:30;;;;;;;7.10;3.03;;;6.70;99.90;;;;;;4917603;29;20182;-90
2022/01/22 12:08:01;;;;;;;8.20;3.27;;;6.70;99.90;;;;;;4917373;29;20234;-90
2022/01/22 12:10:38;;;;;;;9.23;3.00;;;6.70;99.90;;;;;;4917537;29;20179;-89
2022/01/22 12:16:34;;;;;;;5.97;3.00;;;6.70;99.90;;;;;;4918946;29;20539;-89
2022/01/22 12:19:01;;;;;;;7.43;3.60;;;6.70;99.90;;;;;;4919239;29;20216;-90
2022/01/22 12:21:38;;;;;;;9.63;3.63;;;6.70;99.90;;;;;;4917705;29;20237;-90
2022/01/22 12:24:10;;;;;;;7.27;2.93;;;6.70;99.90;;;;;;4917387;29;20277;-89
2022/01/22 12:26:38;;;;;;;8.07;3.00;;;6.60;99.90;;;;;;4917405;29;20182;-90
2022/01/22 12:29:34;;;;;;;8.63;3.37;;;6.60;99.90;;;;;;4917533;29;20226;-90
2022/01/22 12:32:14;;;;;;;7.83;3.30;;;6.60;99.90;;;;;;4918947;29;20174;-90
2022/01/22 12:35:06;;;;;;;9.17;3.00;;;6.60;99.90;;;;;;4918313;29;20175;-90
2022/01/22 12:37:36;;;;;;;7.63;3.10;;;6.70;99.90;;;;;;4921512;29;20186;-90
2022/01/22 12:40:06;;;;;;;7.10;2.87;;;6.60;99.90;;;;;;4921285;29;20188;-90
2022/01/22 12:43:06;;;;;;;4.50;2.47;;;6.70;99.90;;;;;;4921300;29;20190;-90
2022/01/22 12:45:34;;;;;;;5.07;2.47;;;6.70;99.90;;;;;;4914626;29;20183;-91
2022/01/22 12:48:00;;;;;;;7.30;2.77;;;6.60;99.90;;;;;;4921189;29;20296;-90
2022/01/22 12:50:30;;;;;;;8.43;3.83;;;6.60;99.90;;;;;;4921307;29;20190;-90
2022/01/22 12:53:03;;;;;;;13.77;4.27;;;6.50;99.90;;;;;;4921805;29;20221;-91
2022/01/22 12:58:30;;;;;;;6.77;3.73;;;6.50;99.90;;;;;;4870740;29;20303;-90
2022/01/22 13:01:27;;;;;;;7.87;3.53;;;6.40;99.90;;;;;;4920982;29;20183;-90
2022/01/22 13:03:55;;;;;;;13.10;3.70;;;6.40;99.90;;;;;;4921633;29;20197;-90
2022/01/22 13:06:24;;;;;;;11.23;3.93;;;6.40;99.90;;;;;;4920588;29;20221;-90
2022/01/22 13:08:56;;;;;;;9.27;3.93;;;6.40;99.90;;;;;;4920663;29;20234;-90
2022/01/22 13:11:25;;;;;;;8.23;3.90;;;6.40;99.90;;;;;;4920862;29;20641;-90
2022/01/22 13:13:51;;;;;;;13.80;4.37;;;6.40;99.90;;;;;;4920724;29;20644;-90
2022/01/22 13:16:18;;;;;;;9.90;4.37;;;6.40;99.90;;;;;;4921601;29;20179;-90
2022/01/22 13:18:50;;;;;;;11.30;4.13;;;6.40;99.90;;;;;;4920646;29;20701;-90
2022/01/22 13:21:17;;;;;;;14.97;4.57;;;6.40;99.90;;;;;;4927030;29;20214;-90
2022/01/22 13:23:46;;;;;;;9.33;3.97;;;6.40;99.90;;;;;;4901484;29;20189;-90
2022/01/22 13:26:13;;;;;;;11.10;4.10;;;6.50;99.90;;;;;;4901308;29;20187;-90
2022/01/22 13:28:40;;;;;;;9.87;3.97;;;6.50;99.90;;;;;;4913091;29;20211;-89
2022/01/22 13:31:15;;;;;;;9.10;3.80;;;6.50;99.90;;;;;;4920448;29;20179;-91
2022/01/22 13:34:15;;;;;;;8.03;3.60;;;6.60;99.90;;;;;;4920520;29;20297;-91
2022/01/22 13:47:39;;;;;;;4.47;2.57;;;6.80;99.90;;;;;;4899698;29;20206;-90
2022/01/22 13:48:06;;;;;;;7.20;2.20;;;6.90;99.90;;;;;;4902152;29;20549;-91
2022/01/22 13:50:31;;;;;;;2.53;1.87;;;6.90;99.90;;;;;;4919326;29;20266;-90
2022/01/22 13:52:57;;;;;;;5.07;2.40;;;6.90;99.90;;;;;;4920111;29;20187;-90
2022/01/22 13:55:23;;;;;;;3.27;1.83;;;6.90;99.90;;;;;;4919801;29;20214;-90
2022/01/22 13:57:48;;;;;;;6.07;2.30;;;7.00;99.90;;;;;;4919960;29;20183;-90
2022/01/22 14:00:17;;;;;;;2.00;1.60;;;7.00;99.90;;;;;;4920092;29;20193;-90
2022/01/22 14:05:31;;;;;;;3.47;1.80;;;7.00;99.90;;;;;;4921071;29;20325;-89
2022/01/22 14:08:07;;;;;;;4.53;1.60;;;7.00;99.90;;;;;;4920895;29;20238;-90
2022/01/22 14:10:34;;;;;;;4.00;1.50;;;7.00;99.90;;;;;;4920434;29;20190;-89
2022/01/22 14:13:11;;;;;;;2.30;1.50;;;7.00;99.90;;;;;;4919646;29;20700;-90
2022/01/22 14:15:44;;;;;;;6.73;1.40;;;7.00;99.90;;;;;;4919751;29;20704;-90
2022/01/22 14:20:42;;;;;;;4.30;1.67;;;6.90;99.90;;;;;;4940077;29;20625;-90
2022/01/22 14:23:14;;;;;;;1.90;1.47;;;6.80;99.90;;;;;;4931678;29;20194;-90
2022/01/22 14:25:54;;;;;;;3.37;1.83;;;6.90;99.90;;;;;;4919108;29;20190;-90
2022/01/22 14:28:21;;;;;;;4.23;1.83;;;6.80;99.90;;;;;;4919145;29;20305;-89
2022/01/22 14:30:48;;;;;;;2.60;1.40;;;6.80;99.90;;;;;;4919492;29;20185;-90
2022/01/22 14:33:20;;;;;;;4.03;1.70;;;6.80;99.90;;;;;;4919038;29;20230;-90
2022/01/22 14:36:00;;;;;;;2.83;1.90;;;6.80;99.90;;;;;;4919035;29;20229;-91
2022/01/22 14:38:39;;;;;;;1.70;1.23;;;6.80;99.90;;;;;;4918524;29;20186;-89
2022/01/22 14:46:42;;;;;;;1.30;0.97;;;6.80;99.90;;;;;;4919697;29;20535;-89
2022/01/22 14:49:08;;;;;;;0.93;0.70;;;6.80;99.90;;;;;;4918812;29;20676;-90
2022/01/22 14:51:34;;;;;;;2.53;1.03;;;6.70;99.90;;;;;;4918673;29;20186;-91
2022/01/22 14:54:00;;;;;;;3.80;1.07;;;6.70;99.90;;;;;;4918435;29;20273;-89
2022/01/22 14:56:25;;;;;;;1.20;0.70;;;6.70;99.90;;;;;;4918750;29;20242;-91
2022/01/22 14:58:51;;;;;;;1.60;0.80;;;6.70;99.90;;;;;;4918382;29;20174;-90
2022/01/22 15:01:17;;;;;;;1.10;0.80;;;6.70;99.90;;;;;;4918690;29;20205;-90
2022/01/22 15:03:42;;;;;;;0.90;0.73;;;6.70;99.90;;;;;;4918279;29;20186;-91
2022/01/22 15:06:08;;;;;;;1.23;0.93;;;6.70;99.90;;;;;;4918522;29;20234;-90
2022/01/22 15:08:34;;;;;;;1.17;0.87;;;6.60;99.90;;;;;;4918272;29;20215;-90
2022/01/22 15:10:59;;;;;;;2.33;0.90;;;6.70;99.90;;;;;;4917844;29;20182;-90